sensor_id;sensor_type;location;lat;lon;timestamp;P1;durP1;ratioP1;P2;durP2;ratioP2
75413;SDS011;64758;52.122;5.404;2023-03-31T00:02:03;6.63;;;1.40;;
75413;SDS011;64758;52.122;5.404;2023-03-31T00:04:39;5.38;;;1.60;;
75413;SDS011;64758;52.122;5.404;2023-03-31T00:07:14;7.05;;;1.52;;
75413;SDS011;64758;52.122;5.404;2023-03-31T00:09:41;7.13;;;1.15;;
75413;SDS011;64758;52.122;5.404;2023-03-31T00:12:12;10.85;;;1.60;;
75413;SDS011;64758;52.122;5.404;2023-03-31T00:14:39;7.63;;;1.67;;
75413;SDS011;64758;52.122;5.404;2023-03-31T00:17:06;7.82;;;1.30;;
75413;SDS011;64758;52.122;5.404;2023-03-31T00:19:34;6.45;;;1.23;;
75413;SDS011;64758;52.122;5.404;2023-03-31T00:22:01;8.95;;;1.35;;
75413;SDS011;64758;52.122;5.404;2023-03-31T00:24:30;7.93;;;1.67;;
75413;SDS011;64758;52.122;5.404;2023-03-31T00:27:01;8.20;;;1.40;;
75413;SDS011;64758;52.122;5.404;2023-03-31T00:29:29;5.60;;;1.17;;
75413;SDS011;64758;52.122;5.404;2023-03-31T00:31:56;4.68;;;1.02;;
75413;SDS011;64758;52.122;5.404;2023-03-31T00:34:25;7.53;;;1.33;;
75413;SDS011;64758;52.122;5.404;2023-03-31T00:36:52;8.43;;;1.17;;
75413;SDS011;64758;52.122;5.404;2023-03-31T00:39:22;5.07;;;1.03;;
75413;SDS011;64758;52.122;5.404;2023-03-31T00:41:57;8.98;;;1.38;;
75413;SDS011;64758;52.122;5.404;2023-03-31T00:44:24;4.45;;;0.70;;
75413;SDS011;64758;52.122;5.404;2023-03-31T00:46:51;6.47;;;1.25;;
75413;SDS011;64758;52.122;5.404;2023-03-31T00:49:31;5.47;;;1.00;;
75413;SDS011;64758;52.122;5.404;2023-03-31T00:52:03;5.77;;;1.83;;
75413;SDS011;64758;52.122;5.404;2023-03-31T00:54:35;6.85;;;1.20;;
75413;SDS011;64758;52.122;5.404;2023-03-31T00:57:03;6.28;;;1.20;;
75413;SDS011;64758;52.122;5.404;2023-03-31T00:59:33;6.07;;;0.88;;
75413;SDS011;64758;52.122;5.404;2023-03-31T01:02:03;5.75;;;1.20;;
75413;SDS011;64758;52.122;5.404;2023-03-31T01:04:31;3.90;;;0.80;;
75413;SDS011;64758;52.122;5.404;2023-03-31T01:07:06;4.53;;;0.90;;
75413;SDS011;64758;52.122;5.404;2023-03-31T01:09:43;7.00;;;1.25;;
75413;SDS011;64758;52.122;5.404;2023-03-31T01:12:12;4.35;;;0.80;;
75413;SDS011;64758;52.122;5.404;2023-03-31T01:14:42;5.88;;;0.90;;
75413;SDS011;64758;52.122;5.404;2023-03-31T01:17:08;7.33;;;0.93;;
75413;SDS011;64758;52.122;5.404;2023-03-31T01:19:43;9.35;;;1.77;;
75413;SDS011;64758;52.122;5.404;2023-03-31T01:22:42;7.63;;;1.10;;
75413;SDS011;64758;52.122;5.404;2023-03-31T01:39:13;4.63;;;1.05;;
75413;SDS011;64758;52.122;5.404;2023-03-31T01:47:45;4.78;;;1.48;;
75413;SDS011;64758;52.122;5.404;2023-03-31T01:50:27;5.82;;;1.00;;
75413;SDS011;64758;52.122;5.404;2023-03-31T01:58:52;5.43;;;1.00;;
75413;SDS011;64758;52.122;5.404;2023-03-31T02:04:16;7.57;;;1.70;;
75413;SDS011;64758;52.122;5.404;2023-03-31T02:06:50;7.07;;;1.88;;
75413;SDS011;64758;52.122;5.404;2023-03-31T02:09:22;6.75;;;1.35;;
75413;SDS011;64758;52.122;5.404;2023-03-31T02:11:52;5.23;;;1.17;;
75413;SDS011;64758;52.122;5.404;2023-03-31T02:14:22;6.43;;;1.40;;
75413;SDS011;64758;52.122;5.404;2023-03-31T02:16:54;7.10;;;1.80;;
75413;SDS011;64758;52.122;5.404;2023-03-31T02:19:24;6.97;;;1.65;;
75413;SDS011;64758;52.122;5.404;2023-03-31T02:21:55;4.45;;;1.20;;
75413;SDS011;64758;52.122;5.404;2023-03-31T02:24:23;7.47;;;1.63;;
75413;SDS011;64758;52.122;5.404;2023-03-31T02:29:31;6.68;;;1.20;;
75413;SDS011;64758;52.122;5.404;2023-03-31T02:32:11;8.07;;;1.42;;
75413;SDS011;64758;52.122;5.404;2023-03-31T02:34:39;10.20;;;1.90;;
75413;SDS011;64758;52.122;5.404;2023-03-31T02:37:05;6.07;;;1.43;;
75413;SDS011;64758;52.122;5.404;2023-03-31T02:39:34;8.38;;;1.20;;
75413;SDS011;64758;52.122;5.404;2023-03-31T02:42:03;5.63;;;1.50;;
75413;SDS011;64758;52.122;5.404;2023-03-31T02:44:33;7.88;;;1.20;;
75413;SDS011;64758;52.122;5.404;2023-03-31T02:47:01;7.68;;;1.20;;
75413;SDS011;64758;52.122;5.404;2023-03-31T02:49:31;6.60;;;1.30;;
75413;SDS011;64758;52.122;5.404;2023-03-31T02:57:18;6.70;;;1.25;;
75413;SDS011;64758;52.122;5.404;2023-03-31T03:06:01;6.78;;;1.00;;
75413;SDS011;64758;52.122;5.404;2023-03-31T03:11:41;6.43;;;1.50;;
75413;SDS011;64758;52.122;5.404;2023-03-31T03:14:22;5.70;;;0.98;;
75413;SDS011;64758;52.122;5.404;2023-03-31T03:17:27;8.53;;;1.30;;
75413;SDS011;64758;52.122;5.404;2023-03-31T03:20:00;3.90;;;0.70;;
75413;SDS011;64758;52.122;5.404;2023-03-31T03:22:34;5.72;;;1.15;;
75413;SDS011;64758;52.122;5.404;2023-03-31T03:25:03;5.68;;;0.80;;
75413;SDS011;64758;52.122;5.404;2023-03-31T03:27:34;7.05;;;1.10;;
75413;SDS011;64758;52.122;5.404;2023-03-31T03:30:02;7.03;;;1.13;;
75413;SDS011;64758;52.122;5.404;2023-03-31T03:32:30;4.53;;;1.13;;
75413;SDS011;64758;52.122;5.404;2023-03-31T03:34:56;4.05;;;0.80;;
75413;SDS011;64758;52.122;5.404;2023-03-31T03:37:23;4.68;;;0.85;;
75413;SDS011;64758;52.122;5.404;2023-03-31T03:39:49;6.10;;;0.98;;
75413;SDS011;64758;52.122;5.404;2023-03-31T03:42:16;6.53;;;0.80;;
75413;SDS011;64758;52.122;5.404;2023-03-31T03:44:42;5.10;;;0.80;;
75413;SDS011;64758;52.122;5.404;2023-03-31T03:47:09;6.00;;;1.10;;
75413;SDS011;64758;52.122;5.404;2023-03-31T03:49:36;7.22;;;0.80;;
75413;SDS011;64758;52.122;5.404;2023-03-31T03:52:02;6.03;;;1.02;;
75413;SDS011;64758;52.122;5.404;2023-03-31T03:54:29;7.43;;;0.73;;
75413;SDS011;64758;52.122;5.404;2023-03-31T03:56:56;4.63;;;0.55;;
75413;SDS011;64758;52.122;5.404;2023-03-31T03:59:22;7.15;;;0.75;;
75413;SDS011;64758;52.122;5.404;2023-03-31T04:01:49;8.07;;;1.02;;
75413;SDS011;64758;52.122;5.404;2023-03-31T04:04:16;6.45;;;1.00;;
75413;SDS011;64758;52.122;5.404;2023-03-31T04:06:43;8.20;;;0.60;;
75413;SDS011;64758;52.122;5.404;2023-03-31T04:09:10;3.85;;;0.60;;
75413;SDS011;64758;52.122;5.404;2023-03-31T04:11:37;3.97;;;0.60;;
75413;SDS011;64758;52.122;5.404;2023-03-31T04:14:03;5.85;;;0.90;;
75413;SDS011;64758;52.122;5.404;2023-03-31T04:16:30;7.55;;;0.63;;
75413;SDS011;64758;52.122;5.404;2023-03-31T04:18:57;4.97;;;0.40;;
75413;SDS011;64758;52.122;5.404;2023-03-31T04:21:24;4.50;;;0.52;;
75413;SDS011;64758;52.122;5.404;2023-03-31T04:23:52;6.30;;;0.60;;
75413;SDS011;64758;52.122;5.404;2023-03-31T04:26:30;3.72;;;0.40;;
75413;SDS011;64758;52.122;5.404;2023-03-31T04:29:12;4.13;;;0.32;;
75413;SDS011;64758;52.122;5.404;2023-03-31T04:31:41;4.47;;;0.40;;
75413;SDS011;64758;52.122;5.404;2023-03-31T04:34:09;1.92;;;0.73;;
75413;SDS011;64758;52.122;5.404;2023-03-31T04:36:40;3.83;;;0.77;;
75413;SDS011;64758;52.122;5.404;2023-03-31T04:39:16;3.60;;;0.40;;
75413;SDS011;64758;52.122;5.404;2023-03-31T04:41:56;2.05;;;0.30;;
75413;SDS011;64758;52.122;5.404;2023-03-31T04:44:23;2.50;;;0.50;;
75413;SDS011;64758;52.122;5.404;2023-03-31T04:46:50;3.47;;;0.90;;
75413;SDS011;64758;52.122;5.404;2023-03-31T04:49:17;7.15;;;0.65;;
75413;SDS011;64758;52.122;5.404;2023-03-31T04:51:43;3.60;;;0.70;;
75413;SDS011;64758;52.122;5.404;2023-03-31T04:54:10;6.13;;;1.00;;
75413;SDS011;64758;52.122;5.404;2023-03-31T04:56:37;7.90;;;0.93;;
75413;SDS011;64758;52.122;5.404;2023-03-31T04:59:03;5.97;;;1.15;;
75413;SDS011;64758;52.122;5.404;2023-03-31T05:01:30;4.93;;;1.13;;
75413;SDS011;64758;52.122;5.404;2023-03-31T05:04:02;2.55;;;1.20;;
75413;SDS011;64758;52.122;5.404;2023-03-31T05:06:29;5.22;;;1.50;;
75413;SDS011;64758;52.122;5.404;2023-03-31T05:08:56;2.73;;;1.20;;
75413;SDS011;64758;52.122;5.404;2023-03-31T05:11:22;3.88;;;1.30;;
75413;SDS011;64758;52.122;5.404;2023-03-31T05:13:49;7.32;;;1.70;;
75413;SDS011;64758;52.122;5.404;2023-03-31T05:16:15;5.95;;;1.30;;
75413;SDS011;64758;52.122;5.404;2023-03-31T05:18:42;3.83;;;1.40;;
75413;SDS011;64758;52.122;5.404;2023-03-31T05:21:10;5.50;;;1.17;;
75413;SDS011;64758;52.122;5.404;2023-03-31T05:23:44;4.13;;;0.90;;
75413;SDS011;64758;52.122;5.404;2023-03-31T05:26:11;6.65;;;0.98;;
75413;SDS011;64758;52.122;5.404;2023-03-31T05:28:39;4.60;;;0.88;;
75413;SDS011;64758;52.122;5.404;2023-03-31T05:31:07;5.25;;;1.48;;
75413;SDS011;64758;52.122;5.404;2023-03-31T05:33:35;7.07;;;0.87;;
75413;SDS011;64758;52.122;5.404;2023-03-31T05:36:07;5.70;;;1.00;;
75413;SDS011;64758;52.122;5.404;2023-03-31T05:38:38;5.40;;;0.98;;
75413;SDS011;64758;52.122;5.404;2023-03-31T05:41:05;5.40;;;0.82;;
75413;SDS011;64758;52.122;5.404;2023-03-31T05:43:34;5.35;;;0.98;;
75413;SDS011;64758;52.122;5.404;2023-03-31T05:46:01;5.77;;;0.97;;
75413;SDS011;64758;52.122;5.404;2023-03-31T05:48:29;5.35;;;1.13;;
75413;SDS011;64758;52.122;5.404;2023-03-31T05:50:58;4.40;;;0.85;;
75413;SDS011;64758;52.122;5.404;2023-03-31T05:53:26;5.95;;;0.80;;
75413;SDS011;64758;52.122;5.404;2023-03-31T05:55:56;3.45;;;0.80;;
75413;SDS011;64758;52.122;5.404;2023-03-31T05:58:24;3.37;;;0.80;;
75413;SDS011;64758;52.122;5.404;2023-03-31T06:01:10;7.25;;;1.08;;
75413;SDS011;64758;52.122;5.404;2023-03-31T06:03:41;5.18;;;0.70;;
75413;SDS011;64758;52.122;5.404;2023-03-31T06:06:09;4.40;;;0.88;;
75413;SDS011;64758;52.122;5.404;2023-03-31T06:08:38;5.32;;;0.85;;
75413;SDS011;64758;52.122;5.404;2023-03-31T06:11:10;5.50;;;0.50;;
75413;SDS011;64758;52.122;5.404;2023-03-31T06:13:41;6.78;;;1.02;;
75413;SDS011;64758;52.122;5.404;2023-03-31T06:16:09;7.80;;;0.90;;
75413;SDS011;64758;52.122;5.404;2023-03-31T06:18:37;5.15;;;0.70;;
75413;SDS011;64758;52.122;5.404;2023-03-31T06:21:04;4.95;;;0.90;;
75413;SDS011;64758;52.122;5.404;2023-03-31T06:23:31;8.30;;;0.93;;
75413;SDS011;64758;52.122;5.404;2023-03-31T06:26:02;4.40;;;0.60;;
75413;SDS011;64758;52.122;5.404;2023-03-31T06:28:33;5.78;;;0.70;;
75413;SDS011;64758;52.122;5.404;2023-03-31T06:33:29;4.00;;;0.80;;
75413;SDS011;64758;52.122;5.404;2023-03-31T06:35:57;3.30;;;0.40;;
75413;SDS011;64758;52.122;5.404;2023-03-31T06:38:24;5.07;;;0.85;;
75413;SDS011;64758;52.122;5.404;2023-03-31T06:40:51;6.63;;;1.00;;
75413;SDS011;64758;52.122;5.404;2023-03-31T06:43:17;4.40;;;0.40;;
75413;SDS011;64758;52.122;5.404;2023-03-31T06:45:44;3.28;;;0.40;;
75413;SDS011;64758;52.122;5.404;2023-03-31T06:48:11;2.53;;;0.40;;
75413;SDS011;64758;52.122;5.404;2023-03-31T06:50:38;3.80;;;0.43;;
75413;SDS011;64758;52.122;5.404;2023-03-31T06:53:07;5.25;;;0.55;;
75413;SDS011;64758;52.122;5.404;2023-03-31T06:55:34;2.90;;;0.55;;
75413;SDS011;64758;52.122;5.404;2023-03-31T06:58:01;4.15;;;0.93;;
75413;SDS011;64758;52.122;5.404;2023-03-31T07:00:28;3.13;;;0.37;;
75413;SDS011;64758;52.122;5.404;2023-03-31T07:02:54;2.47;;;0.30;;
75413;SDS011;64758;52.122;5.404;2023-03-31T07:05:21;2.53;;;0.47;;
75413;SDS011;64758;52.122;5.404;2023-03-31T07:07:55;2.45;;;0.20;;
75413;SDS011;64758;52.122;5.404;2023-03-31T07:10:23;1.73;;;0.30;;
75413;SDS011;64758;52.122;5.404;2023-03-31T07:12:50;3.43;;;0.40;;
75413;SDS011;64758;52.122;5.404;2023-03-31T07:15:17;3.90;;;0.30;;
75413;SDS011;64758;52.122;5.404;2023-03-31T07:17:44;2.65;;;0.30;;
75413;SDS011;64758;52.122;5.404;2023-03-31T07:20:12;2.90;;;0.60;;
75413;SDS011;64758;52.122;5.404;2023-03-31T07:22:40;2.63;;;0.40;;
75413;SDS011;64758;52.122;5.404;2023-03-31T07:25:08;1.73;;;0.20;;
75413;SDS011;64758;52.122;5.404;2023-03-31T07:27:35;2.10;;;0.45;;
75413;SDS011;64758;52.122;5.404;2023-03-31T07:30:03;3.25;;;0.47;;
75413;SDS011;64758;52.122;5.404;2023-03-31T07:32:38;2.30;;;0.90;;
75413;SDS011;64758;52.122;5.404;2023-03-31T07:35:06;2.47;;;0.50;;
75413;SDS011;64758;52.122;5.404;2023-03-31T07:37:35;2.13;;;0.50;;
75413;SDS011;64758;52.122;5.404;2023-03-31T07:40:02;3.72;;;0.47;;
75413;SDS011;64758;52.122;5.404;2023-03-31T07:42:31;3.17;;;0.30;;
75413;SDS011;64758;52.122;5.404;2023-03-31T07:44:58;2.42;;;0.40;;
75413;SDS011;64758;52.122;5.404;2023-03-31T07:47:24;1.85;;;0.40;;
75413;SDS011;64758;52.122;5.404;2023-03-31T07:49:51;2.00;;;0.30;;
75413;SDS011;64758;52.122;5.404;2023-03-31T07:52:17;2.30;;;0.43;;
75413;SDS011;64758;52.122;5.404;2023-03-31T07:54:45;2.88;;;0.38;;
75413;SDS011;64758;52.122;5.404;2023-03-31T07:57:12;1.88;;;0.40;;
75413;SDS011;64758;52.122;5.404;2023-03-31T07:59:39;2.25;;;0.32;;
75413;SDS011;64758;52.122;5.404;2023-03-31T08:02:05;2.77;;;0.30;;
75413;SDS011;64758;52.122;5.404;2023-03-31T08:04:32;3.47;;;0.35;;
75413;SDS011;64758;52.122;5.404;2023-03-31T08:06:59;2.17;;;0.45;;
75413;SDS011;64758;52.122;5.404;2023-03-31T08:09:25;3.58;;;0.52;;
75413;SDS011;64758;52.122;5.404;2023-03-31T08:11:52;3.45;;;0.40;;
75413;SDS011;64758;52.122;5.404;2023-03-31T08:14:18;1.50;;;0.40;;
75413;SDS011;64758;52.122;5.404;2023-03-31T08:16:55;3.38;;;0.40;;
75413;SDS011;64758;52.122;5.404;2023-03-31T08:19:23;3.40;;;0.50;;
75413;SDS011;64758;52.122;5.404;2023-03-31T08:21:49;1.92;;;0.40;;
75413;SDS011;64758;52.122;5.404;2023-03-31T08:24:17;1.90;;;0.50;;
75413;SDS011;64758;52.122;5.404;2023-03-31T08:26:45;1.83;;;0.40;;
75413;SDS011;64758;52.122;5.404;2023-03-31T08:29:12;4.18;;;0.70;;
75413;SDS011;64758;52.122;5.404;2023-03-31T08:31:38;4.05;;;0.80;;
75413;SDS011;64758;52.122;5.404;2023-03-31T08:34:05;2.33;;;0.52;;
75413;SDS011;64758;52.122;5.404;2023-03-31T08:36:32;4.88;;;0.85;;
75413;SDS011;64758;52.122;5.404;2023-03-31T08:38:59;3.80;;;0.70;;
75413;SDS011;64758;52.122;5.404;2023-03-31T08:44:10;5.53;;;0.70;;
75413;SDS011;64758;52.122;5.404;2023-03-31T08:46:41;1.80;;;0.50;;
75413;SDS011;64758;52.122;5.404;2023-03-31T08:49:11;3.53;;;0.75;;
75413;SDS011;64758;52.122;5.404;2023-03-31T08:51:46;5.10;;;0.77;;
75413;SDS011;64758;52.122;5.404;2023-03-31T08:54:24;4.95;;;1.00;;
75413;SDS011;64758;52.122;5.404;2023-03-31T08:57:03;5.05;;;1.05;;
75413;SDS011;64758;52.122;5.404;2023-03-31T08:59:36;5.97;;;1.08;;
75413;SDS011;64758;52.122;5.404;2023-03-31T09:02:19;5.38;;;1.15;;
75413;SDS011;64758;52.122;5.404;2023-03-31T09:15:38;7.20;;;1.42;;
75413;SDS011;64758;52.122;5.404;2023-03-31T09:21:01;10.52;;;1.98;;
75413;SDS011;64758;52.122;5.404;2023-03-31T09:23:42;10.13;;;1.55;;
75413;SDS011;64758;52.122;5.404;2023-03-31T09:26:23;13.05;;;1.60;;
75413;SDS011;64758;52.122;5.404;2023-03-31T09:28:56;10.30;;;1.40;;
75413;SDS011;64758;52.122;5.404;2023-03-31T09:31:24;7.33;;;1.53;;
75413;SDS011;64758;52.122;5.404;2023-03-31T09:33:54;9.63;;;2.22;;
75413;SDS011;64758;52.122;5.404;2023-03-31T09:36:26;8.52;;;1.27;;
75413;SDS011;64758;52.122;5.404;2023-03-31T09:38:53;11.35;;;1.80;;
75413;SDS011;64758;52.122;5.404;2023-03-31T09:41:20;6.07;;;1.52;;
75413;SDS011;64758;52.122;5.404;2023-03-31T09:43:47;8.57;;;1.23;;
75413;SDS011;64758;52.122;5.404;2023-03-31T09:46:20;10.65;;;1.60;;
75413;SDS011;64758;52.122;5.404;2023-03-31T09:48:57;8.05;;;1.60;;
75413;SDS011;64758;52.122;5.404;2023-03-31T09:51:34;9.52;;;1.55;;
75413;SDS011;64758;52.122;5.404;2023-03-31T09:54:12;5.53;;;1.52;;
75413;SDS011;64758;52.122;5.404;2023-03-31T09:56:49;3.77;;;0.97;;
75413;SDS011;64758;52.122;5.404;2023-03-31T09:59:21;5.57;;;1.13;;
75413;SDS011;64758;52.122;5.404;2023-03-31T10:01:56;10.00;;;1.88;;
75413;SDS011;64758;52.122;5.404;2023-03-31T10:04:26;12.23;;;1.90;;
75413;SDS011;64758;52.122;5.404;2023-03-31T10:06:55;8.88;;;1.85;;
75413;SDS011;64758;52.122;5.404;2023-03-31T10:09:25;10.00;;;1.80;;
75413;SDS011;64758;52.122;5.404;2023-03-31T10:11:54;9.38;;;1.92;;
75413;SDS011;64758;52.122;5.404;2023-03-31T10:14:25;6.55;;;1.50;;
75413;SDS011;64758;52.122;5.404;2023-03-31T10:16:58;8.77;;;1.40;;
75413;SDS011;64758;52.122;5.404;2023-03-31T10:19:33;9.13;;;1.65;;
75413;SDS011;64758;52.122;5.404;2023-03-31T10:22:02;9.10;;;1.50;;
75413;SDS011;64758;52.122;5.404;2023-03-31T10:24:37;7.20;;;1.50;;
75413;SDS011;64758;52.122;5.404;2023-03-31T10:27:11;8.70;;;1.17;;
75413;SDS011;64758;52.122;5.404;2023-03-31T10:29:54;6.90;;;1.40;;
75413;SDS011;64758;52.122;5.404;2023-03-31T10:32:23;6.38;;;1.42;;
75413;SDS011;64758;52.122;5.404;2023-03-31T10:34:55;6.83;;;0.80;;
75413;SDS011;64758;52.122;5.404;2023-03-31T10:37:24;9.10;;;0.93;;
75413;SDS011;64758;52.122;5.404;2023-03-31T10:39:56;5.55;;;0.95;;
75413;SDS011;64758;52.122;5.404;2023-03-31T10:42:25;4.63;;;1.40;;
75413;SDS011;64758;52.122;5.404;2023-03-31T10:45:36;7.72;;;1.23;;
75413;SDS011;64758;52.122;5.404;2023-03-31T10:48:01;4.37;;;0.70;;
75413;SDS011;64758;52.122;5.404;2023-03-31T10:50:28;6.93;;;1.08;;
75413;SDS011;64758;52.122;5.404;2023-03-31T10:53:04;11.95;;;1.42;;
75413;SDS011;64758;52.122;5.404;2023-03-31T10:55:41;10.75;;;1.10;;
75413;SDS011;64758;52.122;5.404;2023-03-31T11:04:38;9.07;;;1.20;;
75413;SDS011;64758;52.122;5.404;2023-03-31T11:21:21;8.55;;;1.10;;
75413;SDS011;64758;52.122;5.404;2023-03-31T11:29:41;6.40;;;0.93;;
75413;SDS011;64758;52.122;5.404;2023-03-31T11:35:22;7.97;;;1.20;;
75413;SDS011;64758;52.122;5.404;2023-03-31T11:41:04;8.50;;;1.15;;
75413;SDS011;64758;52.122;5.404;2023-03-31T11:43:51;8.53;;;1.43;;
75413;SDS011;64758;52.122;5.404;2023-03-31T11:46:27;5.72;;;0.73;;
75413;SDS011;64758;52.122;5.404;2023-03-31T11:49:05;5.15;;;0.75;;
75413;SDS011;64758;52.122;5.404;2023-03-31T11:55:02;6.03;;;0.77;;
75413;SDS011;64758;52.122;5.404;2023-03-31T11:57:41;6.00;;;1.00;;
75413;SDS011;64758;52.122;5.404;2023-03-31T12:00:16;6.45;;;0.82;;
75413;SDS011;64758;52.122;5.404;2023-03-31T12:02:48;7.30;;;1.27;;
75413;SDS011;64758;52.122;5.404;2023-03-31T12:05:20;6.95;;;0.90;;
75413;SDS011;64758;52.122;5.404;2023-03-31T12:10:36;7.00;;;1.20;;
75413;SDS011;64758;52.122;5.404;2023-03-31T12:16:21;7.45;;;0.65;;
75413;SDS011;64758;52.122;5.404;2023-03-31T12:19:01;5.57;;;0.80;;
75413;SDS011;64758;52.122;5.404;2023-03-31T12:21:33;5.65;;;0.90;;
75413;SDS011;64758;52.122;5.404;2023-03-31T12:24:04;6.47;;;0.70;;
75413;SDS011;64758;52.122;5.404;2023-03-31T12:29:45;6.13;;;0.70;;
75413;SDS011;64758;52.122;5.404;2023-03-31T12:32:21;9.65;;;1.75;;
75413;SDS011;64758;52.122;5.404;2023-03-31T12:42:54;5.65;;;1.00;;
75413;SDS011;64758;52.122;5.404;2023-03-31T12:45:34;7.00;;;0.73;;
75413;SDS011;64758;52.122;5.404;2023-03-31T12:51:26;5.07;;;1.03;;
75413;SDS011;64758;52.122;5.404;2023-03-31T12:59:31;5.40;;;1.13;;
75413;SDS011;64758;52.122;5.404;2023-03-31T13:04:37;7.83;;;1.10;;
75413;SDS011;64758;52.122;5.404;2023-03-31T13:07:07;7.80;;;0.98;;
75413;SDS011;64758;52.122;5.404;2023-03-31T13:09:56;10.25;;;1.35;;
75413;SDS011;64758;52.122;5.404;2023-03-31T13:12:25;11.35;;;1.27;;
75413;SDS011;64758;52.122;5.404;2023-03-31T13:14:56;8.30;;;1.13;;
75413;SDS011;64758;52.122;5.404;2023-03-31T13:17:32;9.30;;;1.07;;
75413;SDS011;64758;52.122;5.404;2023-03-31T13:25:43;9.27;;;0.90;;
75413;SDS011;64758;52.122;5.404;2023-03-31T13:28:16;10.35;;;1.55;;
75413;SDS011;64758;52.122;5.404;2023-03-31T13:30:53;7.07;;;1.30;;
75413;SDS011;64758;52.122;5.404;2023-03-31T13:50:36;7.20;;;1.20;;
75413;SDS011;64758;52.122;5.404;2023-03-31T14:01:39;3.72;;;0.40;;
75413;SDS011;64758;52.122;5.404;2023-03-31T14:12:48;7.03;;;1.27;;
75413;SDS011;64758;52.122;5.404;2023-03-31T14:15:18;4.40;;;0.70;;
75413;SDS011;64758;52.122;5.404;2023-03-31T14:17:46;3.97;;;0.60;;
75413;SDS011;64758;52.122;5.404;2023-03-31T14:20:33;7.28;;;0.70;;
75413;SDS011;64758;52.122;5.404;2023-03-31T14:28:53;5.93;;;1.20;;
75413;SDS011;64758;52.122;5.404;2023-03-31T14:31:34;5.35;;;0.70;;
75413;SDS011;64758;52.122;5.404;2023-03-31T14:37:13;2.95;;;0.88;;
75413;SDS011;64758;52.122;5.404;2023-03-31T14:39:43;4.60;;;0.87;;
75413;SDS011;64758;52.122;5.404;2023-03-31T14:42:20;4.95;;;0.73;;
75413;SDS011;64758;52.122;5.404;2023-03-31T14:45:00;3.95;;;0.95;;
75413;SDS011;64758;52.122;5.404;2023-03-31T14:47:28;4.70;;;0.77;;
75413;SDS011;64758;52.122;5.404;2023-03-31T14:50:04;3.25;;;1.00;;
75413;SDS011;64758;52.122;5.404;2023-03-31T14:52:48;4.33;;;0.70;;
75413;SDS011;64758;52.122;5.404;2023-03-31T14:55:20;2.35;;;0.98;;
75413;SDS011;64758;52.122;5.404;2023-03-31T14:57:53;2.95;;;1.00;;
75413;SDS011;64758;52.122;5.404;2023-03-31T15:00:30;4.22;;;0.90;;
75413;SDS011;64758;52.122;5.404;2023-03-31T15:02:58;2.95;;;0.63;;
75413;SDS011;64758;52.122;5.404;2023-03-31T15:05:31;1.77;;;0.70;;
75413;SDS011;64758;52.122;5.404;2023-03-31T15:08:01;3.53;;;0.70;;
75413;SDS011;64758;52.122;5.404;2023-03-31T15:10:47;4.30;;;0.68;;
75413;SDS011;64758;52.122;5.404;2023-03-31T15:16:36;5.68;;;1.10;;
75413;SDS011;64758;52.122;5.404;2023-03-31T15:19:17;2.77;;;0.60;;
75413;SDS011;64758;52.122;5.404;2023-03-31T15:21:47;4.05;;;0.70;;
75413;SDS011;64758;52.122;5.404;2023-03-31T15:24:21;3.15;;;0.60;;
75413;SDS011;64758;52.122;5.404;2023-03-31T15:26:59;2.50;;;0.80;;
75413;SDS011;64758;52.122;5.404;2023-03-31T15:29:35;4.07;;;0.55;;
75413;SDS011;64758;52.122;5.404;2023-03-31T15:32:16;1.93;;;0.30;;
75413;SDS011;64758;52.122;5.404;2023-03-31T15:34:50;2.13;;;0.60;;
75413;SDS011;64758;52.122;5.404;2023-03-31T15:37:24;1.60;;;0.60;;
75413;SDS011;64758;52.122;5.404;2023-03-31T15:39:58;5.50;;;0.65;;
75413;SDS011;64758;52.122;5.404;2023-03-31T15:42:27;4.03;;;0.50;;
75413;SDS011;64758;52.122;5.404;2023-03-31T15:44:55;2.60;;;0.50;;
75413;SDS011;64758;52.122;5.404;2023-03-31T15:47:37;1.85;;;0.60;;
75413;SDS011;64758;52.122;5.404;2023-03-31T15:52:34;1.10;;;0.40;;
75413;SDS011;64758;52.122;5.404;2023-03-31T15:55:20;4.22;;;0.63;;
75413;SDS011;64758;52.122;5.404;2023-03-31T15:57:48;2.87;;;1.20;;
75413;SDS011;64758;52.122;5.404;2023-03-31T16:03:10;2.67;;;0.82;;
75413;SDS011;64758;52.122;5.404;2023-03-31T16:05:40;2.13;;;0.70;;
75413;SDS011;64758;52.122;5.404;2023-03-31T16:08:41;3.28;;;1.00;;
75413;SDS011;64758;52.122;5.404;2023-03-31T16:11:13;1.90;;;0.80;;
75413;SDS011;64758;52.122;5.404;2023-03-31T16:13:46;1.67;;;1.00;;
75413;SDS011;64758;52.122;5.404;2023-03-31T16:16:17;6.07;;;1.10;;
75413;SDS011;64758;52.122;5.404;2023-03-31T16:18:49;5.18;;;0.90;;
75413;SDS011;64758;52.122;5.404;2023-03-31T16:21:21;3.42;;;0.80;;
75413;SDS011;64758;52.122;5.404;2023-03-31T16:23:53;2.97;;;0.87;;
75413;SDS011;64758;52.122;5.404;2023-03-31T16:26:23;1.92;;;0.77;;
75413;SDS011;64758;52.122;5.404;2023-03-31T16:28:53;2.60;;;0.70;;
75413;SDS011;64758;52.122;5.404;2023-03-31T16:31:26;1.80;;;0.60;;
75413;SDS011;64758;52.122;5.404;2023-03-31T16:34:04;1.85;;;0.68;;
75413;SDS011;64758;52.122;5.404;2023-03-31T16:36:33;3.13;;;0.70;;
75413;SDS011;64758;52.122;5.404;2023-03-31T16:38:59;1.58;;;0.50;;
75413;SDS011;64758;52.122;5.404;2023-03-31T16:41:30;1.48;;;0.70;;
75413;SDS011;64758;52.122;5.404;2023-03-31T16:43:58;1.77;;;0.70;;
75413;SDS011;64758;52.122;5.404;2023-03-31T16:46:25;1.55;;;0.60;;
75413;SDS011;64758;52.122;5.404;2023-03-31T16:48:52;1.80;;;0.60;;
75413;SDS011;64758;52.122;5.404;2023-03-31T16:51:19;2.20;;;0.60;;
75413;SDS011;64758;52.122;5.404;2023-03-31T16:53:46;2.65;;;0.73;;
75413;SDS011;64758;52.122;5.404;2023-03-31T16:56:13;1.10;;;0.80;;
75413;SDS011;64758;52.122;5.404;2023-03-31T16:58:41;2.00;;;0.40;;
75413;SDS011;64758;52.122;5.404;2023-03-31T17:01:08;3.97;;;1.60;;
75413;SDS011;64758;52.122;5.404;2023-03-31T17:03:36;2.10;;;1.20;;
75413;SDS011;64758;52.122;5.404;2023-03-31T17:06:06;3.00;;;1.27;;
75413;SDS011;64758;52.122;5.404;2023-03-31T17:08:37;1.40;;;0.75;;
75413;SDS011;64758;52.122;5.404;2023-03-31T17:11:06;1.50;;;0.60;;
75413;SDS011;64758;52.122;5.404;2023-03-31T17:13:36;1.47;;;0.70;;
75413;SDS011;64758;52.122;5.404;2023-03-31T17:16:04;1.27;;;0.63;;
75413;SDS011;64758;52.122;5.404;2023-03-31T17:18:46;2.85;;;0.75;;
75413;SDS011;64758;52.122;5.404;2023-03-31T17:21:14;1.13;;;0.45;;
75413;SDS011;64758;52.122;5.404;2023-03-31T17:23:44;1.75;;;0.75;;
75413;SDS011;64758;52.122;5.404;2023-03-31T17:26:11;2.70;;;0.80;;
75413;SDS011;64758;52.122;5.404;2023-03-31T17:28:39;1.00;;;0.60;;
75413;SDS011;64758;52.122;5.404;2023-03-31T17:31:12;1.35;;;0.65;;
75413;SDS011;64758;52.122;5.404;2023-03-31T17:33:41;1.50;;;0.63;;
75413;SDS011;64758;52.122;5.404;2023-03-31T17:36:09;2.40;;;0.60;;
75413;SDS011;64758;52.122;5.404;2023-03-31T17:38:36;2.17;;;0.43;;
75413;SDS011;64758;52.122;5.404;2023-03-31T17:41:08;1.80;;;0.60;;
75413;SDS011;64758;52.122;5.404;2023-03-31T17:43:36;2.28;;;0.80;;
75413;SDS011;64758;52.122;5.404;2023-03-31T17:46:07;2.50;;;0.85;;
75413;SDS011;64758;52.122;5.404;2023-03-31T17:48:39;1.50;;;0.77;;
75413;SDS011;64758;52.122;5.404;2023-03-31T17:51:07;2.27;;;0.60;;
75413;SDS011;64758;52.122;5.404;2023-03-31T17:53:39;1.20;;;0.80;;
75413;SDS011;64758;52.122;5.404;2023-03-31T17:56:06;1.75;;;0.80;;
75413;SDS011;64758;52.122;5.404;2023-03-31T17:58:34;1.17;;;0.88;;
75413;SDS011;64758;52.122;5.404;2023-03-31T18:01:02;1.10;;;0.70;;
75413;SDS011;64758;52.122;5.404;2023-03-31T18:03:33;1.17;;;0.73;;
75413;SDS011;64758;52.122;5.404;2023-03-31T18:06:07;1.58;;;0.60;;
75413;SDS011;64758;52.122;5.404;2023-03-31T18:08:36;2.00;;;0.90;;
75413;SDS011;64758;52.122;5.404;2023-03-31T18:11:04;2.55;;;1.00;;
75413;SDS011;64758;52.122;5.404;2023-03-31T18:13:34;2.42;;;0.90;;
75413;SDS011;64758;52.122;5.404;2023-03-31T18:16:01;1.30;;;0.80;;
75413;SDS011;64758;52.122;5.404;2023-03-31T18:18:29;1.30;;;0.73;;